Time;durP1;ratioP1;P1;durP2;ratioP2;P2;SDS_P1;SDS_P2;PMS_P1;PMS_P2;Temp;Humidity;BMP_temperature;BMP_pressure;BME280_temperature;BME280_humidity;BME280_pressure;Samples;Min_cycle;Max_cycle;Signal;HPM_P1;HPM_P2
2023/04/23 00:02:01;;;;;;;10.48;2.10;;;14.10;97.30;;;;;;4213657;28;20046;-56
2023/04/23 00:04:07;;;;;;;5.97;1.85;;;14.00;97.60;;;;;;4213892;28;20051;-56
2023/04/23 00:06:11;;;;;;;9.70;2.17;;;14.00;97.50;;;;;;4212552;28;20051;-60
2023/04/23 00:08:16;;;;;;;12.65;2.38;;;14.00;97.50;;;;;;4214063;28;20446;-56
2023/04/23 00:10:19;;;;;;;;;;;14.00;97.60;;;;;;4214124;28;20048;-55
2023/04/23 00:12:22;;;;;;;11.95;2.42;;;13.90;97.60;;;;;;4213390;28;19924;-55
2023/04/23 00:14:24;;;;;;;5.00;1.70;;;13.90;97.80;;;;;;4213659;28;20040;-55
2023/04/23 00:16:27;;;;;;;12.05;3.00;;;13.90;97.80;;;;;;4212513;28;20051;-56
2023/04/23 00:18:33;;;;;;;8.23;2.33;;;13.90;97.70;;;;;;4213808;28;20640;-55
2023/04/23 00:20:36;;;;;;;12.18;2.70;;;13.90;97.90;;;;;;4213491;28;20405;-54
2023/04/23 00:22:39;;;;;;;12.10;2.55;;;13.90;97.80;;;;;;4213527;28;20533;-54
2023/04/23 00:24:41;;;;;;;8.90;2.70;;;13.80;98.00;;;;;;4213404;28;20432;-55
2023/04/23 00:26:44;;;;;;;9.95;2.50;;;13.80;98.00;;;;;;4212076;28;20087;-55
2023/04/23 00:28:46;;;;;;;8.48;2.63;;;13.90;97.90;;;;;;4195803;28;20506;-55
2023/04/23 00:30:48;;;;;;;9.75;2.70;;;13.80;98.10;;;;;;4213355;28;20048;-55
2023/04/23 00:32:51;;;;;;;10.50;2.55;;;13.70;98.00;;;;;;4213702;28;20044;-55
2023/04/23 00:34:54;;;;;;;12.48;4.65;;;13.70;98.10;;;;;;4213741;28;20553;-56
2023/04/23 00:36:56;;;;;;;9.40;2.67;;;13.70;98.20;;;;;;4212644;28;20044;-54
2023/04/23 00:38:59;;;;;;;8.40;2.38;;;13.70;98.30;;;;;;4213549;28;20052;-55
2023/04/23 00:41:01;;;;;;;9.15;2.28;;;13.70;98.30;;;;;;4196334;28;20056;-55
2023/04/23 00:43:03;;;;;;;12.60;2.65;;;13.70;98.40;;;;;;4196778;28;20055;-55
2023/04/23 00:45:07;;;;;;;8.07;2.33;;;13.70;98.40;;;;;;4196490;28;20045;-55
2023/04/23 00:47:11;;;;;;;10.10;2.38;;;13.70;98.50;;;;;;4177825;28;20088;-56
2023/04/23 00:49:14;;;;;;;9.15;2.13;;;13.70;98.50;;;;;;4196689;28;20405;-56
2023/04/23 00:51:16;;;;;;;16.55;2.70;;;13.80;98.40;;;;;;4196363;28;20045;-55
2023/04/23 00:53:18;;;;;;;9.15;2.15;;;13.90;98.40;;;;;;4196520;28;20091;-55
2023/04/23 00:55:22;;;;;;;14.00;2.35;;;13.80;98.30;;;;;;4195664;28;20398;-56
2023/04/23 00:57:25;;;;;;;16.00;2.75;;;13.70;98.60;;;;;;4196475;28;20044;-55
2023/04/23 00:59:28;;;;;;;10.57;2.50;;;13.70;98.70;;;;;;4196266;28;20048;-55
2023/04/23 01:01:32;;;;;;;14.90;2.50;;;13.70;98.80;;;;;;4196378;28;20075;-56
2023/04/23 01:03:36;;;;;;;9.73;2.63;;;13.60;99.00;;;;;;4196691;28;20044;-56
2023/04/23 01:05:40;;;;;;;10.52;2.25;;;13.60;99.00;;;;;;4198547;28;20106;-53
2023/04/23 01:07:43;;;;;;;10.50;2.42;;;13.60;99.20;;;;;;4199669;28;20044;-52
2023/04/23 01:09:46;;;;;;;11.07;2.75;;;13.70;99.20;;;;;;4199401;28;20086;-55
2023/04/23 01:11:50;;;;;;;13.52;2.30;;;13.60;99.10;;;;;;4199765;28;20055;-55
2023/04/23 01:13:52;;;;;;;11.27;2.92;;;13.70;99.30;;;;;;4199366;28;20094;-57
2023/04/23 01:15:55;;;;;;;12.23;2.55;;;13.70;99.30;;;;;;4198566;28;20049;-54
2023/04/23 01:17:58;;;;;;;10.20;2.35;;;13.60;99.30;;;;;;4181593;28;20053;-56
2023/04/23 01:20:00;;;;;;;10.48;2.08;;;13.60;99.60;;;;;;4199583;28;20123;-55
2023/04/23 01:22:03;;;;;;;6.40;1.95;;;13.60;99.50;;;;;;4199328;28;20407;-55
2023/04/23 01:24:07;;;;;;;10.23;2.72;;;13.60;99.50;;;;;;4199091;28;20040;-56
2023/04/23 01:26:13;;;;;;;13.85;2.47;;;13.60;99.60;;;;;;4198160;28;20044;-55
2023/04/23 01:28:16;;;;;;;10.35;2.17;;;13.50;99.70;;;;;;4199286;28;20041;-55
2023/04/23 01:30:18;;;;;;;9.85;2.38;;;13.60;99.70;;;;;;4199458;28;20052;-55
2023/04/23 01:32:20;;;;;;;12.15;2.85;;;13.60;99.60;;;;;;4199208;28;20048;-54
2023/04/23 01:34:23;;;;;;;13.65;2.80;;;13.50;99.90;;;;;;4199077;28;20052;-56
2023/04/23 01:36:25;;;;;;;11.15;2.33;;;13.50;99.90;;;;;;4198184;28;20049;-56
2023/04/23 01:38:30;;;;;;;12.82;2.83;;;13.50;99.90;;;;;;4198966;28;20041;-53
2023/04/23 01:40:37;;;;;;;;;;;13.40;99.90;;;;;;4212595;28;20055;-52
2023/04/23 01:42:40;;;;;;;11.05;2.38;;;13.40;99.90;;;;;;4215829;28;20449;-53
2023/04/23 01:44:42;;;;;;;15.05;2.88;;;13.30;99.90;;;;;;4216090;28;20044;-53
2023/04/23 01:46:44;;;;;;;9.82;2.65;;;13.30;99.90;;;;;;4214703;28;20409;-53
2023/04/23 01:48:46;;;;;;;12.45;2.58;;;13.30;99.90;;;;;;4198152;28;20059;-60
2023/04/23 01:50:49;;;;;;;9.43;2.38;;;13.20;99.90;;;;;;4216292;28;20044;-54
2023/04/23 01:52:51;;;;;;;12.05;2.92;;;13.30;99.90;;;;;;4215684;28;20075;-52
2023/04/23 01:54:53;;;;;;;15.65;2.70;;;13.30;99.90;;;;;;4198297;28;20128;-53
2023/04/23 01:56:57;;;;;;;11.73;2.45;;;13.20;99.90;;;;;;4214843;28;20055;-55
2023/04/23 01:59:00;;;;;;;14.48;3.22;;;13.20;99.90;;;;;;4197105;28;20044;-56
2023/04/23 02:01:02;;;;;;;14.00;2.72;;;13.20;99.90;;;;;;4197325;28;20056;-55
2023/04/23 02:03:04;;;;;;;9.70;2.30;;;13.20;99.90;;;;;;4215275;28;20040;-58
2023/04/23 02:05:10;;;;;;;13.00;2.83;;;13.10;99.90;;;;;;4215427;28;20044;-55
2023/04/23 02:07:14;;;;;;;10.57;2.25;;;13.10;99.90;;;;;;4214080;28;20393;-55
2023/04/23 02:09:16;;;;;;;8.98;2.55;;;13.20;99.90;;;;;;4215784;28;20055;-59
2023/04/23 02:11:18;;;;;;;9.23;2.13;;;13.20;99.90;;;;;;4215533;28;20067;-55
2023/04/23 02:13:22;;;;;;;11.95;2.80;;;13.20;99.90;;;;;;4215500;28;20056;-56
2023/04/23 02:15:24;;;;;;;10.68;2.97;;;13.20;99.90;;;;;;4214361;28;20137;-55
2023/04/23 02:17:28;;;;;;;13.65;3.05;;;13.20;99.90;;;;;;4214174;28;20127;-55
2023/04/23 02:19:33;;;;;;;12.93;2.50;;;13.20;99.90;;;;;;4215192;28;20044;-56
2023/04/23 02:21:35;;;;;;;13.52;3.35;;;13.20;99.90;;;;;;4214930;28;20109;-56
2023/04/23 02:23:37;;;;;;;8.65;2.58;;;13.20;99.90;;;;;;4197563;28;20082;-51
2023/04/23 02:25:39;;;;;;;9.13;2.03;;;13.20;99.90;;;;;;4214583;28;20106;-51
2023/04/23 02:27:41;;;;;;;17.98;3.33;;;13.10;99.90;;;;;;4215043;28;20058;-52
2023/04/23 02:29:45;;;;;;;12.60;2.70;;;13.20;99.90;;;;;;4197090;28;20045;-55
2023/04/23 02:31:47;;;;;;;11.13;2.20;;;13.10;99.90;;;;;;4215417;28;20152;-55
2023/04/23 02:33:50;;;;;;;12.93;2.58;;;13.10;99.90;;;;;;4215394;28;20127;-51
2023/04/23 02:35:52;;;;;;;13.13;2.30;;;13.10;99.90;;;;;;4214333;28;20052;-53
2023/04/23 02:37:55;;;;;;;12.07;3.47;;;13.10;99.90;;;;;;4214623;28;20044;-52
2023/04/23 02:39:56;;;;;;;8.40;2.53;;;13.10;99.90;;;;;;4215070;28;20052;-52
2023/04/23 02:41:59;;;;;;;14.35;2.50;;;13.10;99.90;;;;;;4215015;28;20055;-52
2023/04/23 02:44:01;;;;;;;9.80;2.35;;;13.10;99.90;;;;;;4215202;28;20136;-57
2023/04/23 02:46:08;;;;;;;10.43;2.45;;;13.10;99.90;;;;;;4214098;28;20044;-53
2023/04/23 02:48:10;;;;;;;13.60;3.75;;;13.00;99.90;;;;;;4215115;28;20508;-52
2023/04/23 02:50:12;;;;;;;10.43;2.45;;;13.00;99.90;;;;;;4215225;28;20051;-51
2023/04/23 02:52:14;;;;;;;11.73;2.65;;;13.00;99.90;;;;;;4196717;28;20449;-57
2023/04/23 02:54:17;;;;;;;10.68;2.63;;;12.90;99.90;;;;;;4215265;28;20058;-59
2023/04/23 02:56:20;;;;;;;12.82;2.75;;;13.00;99.90;;;;;;4215351;28;20039;-59
2023/04/23 02:58:22;;;;;;;13.73;3.22;;;13.00;99.90;;;;;;4216380;28;20048;-56
2023/04/23 03:00:24;;;;;;;14.02;2.65;;;13.00;99.90;;;;;;4215817;28;20048;-57
2023/04/23 03:02:28;;;;;;;13.10;2.53;;;12.80;99.90;;;;;;4215876;28;20123;-55
2023/04/23 03:04:30;;;;;;;15.63;2.78;;;13.00;99.90;;;;;;4215398;28;20437;-55
2023/04/23 03:06:34;;;;;;;10.70;2.20;;;12.90;99.90;;;;;;4213520;28;20040;-54
2023/04/23 03:08:36;;;;;;;10.65;2.55;;;12.90;99.90;;;;;;4214725;28;20134;-54
2023/04/23 03:10:38;;;;;;;10.77;2.63;;;12.90;99.90;;;;;;4214960;28;20052;-55
2023/04/23 03:12:40;;;;;;;9.93;2.35;;;13.00;99.90;;;;;;4214888;28;20482;-54
2023/04/23 03:14:43;;;;;;;11.73;2.97;;;12.90;99.90;;;;;;4214761;28;20044;-54
2023/04/23 03:16:45;;;;;;;8.52;2.53;;;12.90;99.90;;;;;;4213503;28;20056;-55
2023/04/23 03:18:48;;;;;;;10.63;2.60;;;12.90;99.90;;;;;;4214431;28;20040;-54
2023/04/23 03:20:51;;;;;;;9.82;2.55;;;12.80;99.90;;;;;;4214109;28;20051;-54
2023/04/23 03:22:53;;;;;;;9.25;2.40;;;12.80;99.90;;;;;;4214336;28;20424;-54
2023/04/23 03:24:54;;;;;;;6.97;2.42;;;12.90;99.90;;;;;;4214355;28;20055;-55
2023/04/23 03:26:57;;;;;;;14.43;3.20;;;12.80;99.90;;;;;;4213002;28;20048;-53
2023/04/23 03:28:58;;;;;;;14.13;3.08;;;12.70;99.90;;;;;;4214141;28;20051;-52
2023/04/23 03:31:01;;;;;;;9.77;2.78;;;12.60;99.90;;;;;;4214349;28;20048;-53
2023/04/23 03:33:03;;;;;;;5.82;2.40;;;12.60;99.90;;;;;;4213972;28;20044;-53
2023/04/23 03:35:08;;;;;;;10.38;2.92;;;12.70;99.90;;;;;;4213979;28;20055;-53
2023/04/23 03:37:10;;;;;;;12.75;3.15;;;12.70;99.90;;;;;;4213209;28;20481;-53
2023/04/23 03:39:12;;;;;;;6.68;2.70;;;12.70;99.90;;;;;;4214081;28;20050;-53
2023/04/23 03:41:15;;;;;;;10.75;2.72;;;12.70;99.90;;;;;;4214156;28;20055;-52
2023/04/23 03:43:17;;;;;;;11.13;2.60;;;12.60;99.90;;;;;;4214035;28;20055;-52
2023/04/23 03:45:19;;;;;;;11.60;2.85;;;12.70;99.90;;;;;;4213969;28;20089;-52
2023/04/23 03:47:21;;;;;;;8.40;2.42;;;12.50;99.90;;;;;;4213094;28;20052;-55
2023/04/23 03:49:25;;;;;;;9.57;3.03;;;12.60;99.90;;;;;;4213733;28;20061;-54
2023/04/23 03:51:28;;;;;;;7.93;2.33;;;12.70;99.90;;;;;;4214181;28;20177;-52
2023/04/23 03:53:30;;;;;;;10.82;2.33;;;12.70;99.90;;;;;;4214076;28;20050;-52
2023/04/23 03:55:33;;;;;;;11.38;2.80;;;12.70;99.90;;;;;;4213949;28;20052;-53
2023/04/23 03:57:35;;;;;;;7.32;2.30;;;12.70;99.90;;;;;;4212753;28;20408;-53
2023/04/23 03:59:37;;;;;;;13.98;2.58;;;12.70;99.90;;;;;;4214984;28;20106;-56
2023/04/23 04:01:39;;;;;;;10.57;2.80;;;12.70;99.90;;;;;;4214897;28;20130;-55
2023/04/23 04:03:42;;;;;;;13.13;3.17;;;12.70;99.90;;;;;;4214049;28;20508;-54
2023/04/23 04:05:44;;;;;;;9.93;2.80;;;12.70;99.90;;;;;;4214955;28;20063;-55
2023/04/23 04:07:48;;;;;;;10.50;2.80;;;12.60;99.90;;;;;;4213938;28;20074;-56
2023/04/23 04:09:50;;;;;;;10.60;2.60;;;12.60;99.90;;;;;;4214834;28;20048;-57
2023/04/23 04:11:52;;;;;;;9.25;3.15;;;12.50;99.90;;;;;;4214199;28;20052;-55
2023/04/23 04:13:55;;;;;;;13.30;2.90;;;12.60;99.90;;;;;;4213582;28;20512;-54
2023/04/23 04:15:57;;;;;;;9.75;2.90;;;12.60;99.90;;;;;;4213327;28;20044;-54
2023/04/23 04:17:59;;;;;;;10.85;2.85;;;12.70;99.90;;;;;;4212853;28;20085;-52
2023/04/23 04:20:02;;;;;;;12.52;3.03;;;12.70;99.90;;;;;;4213821;28;20102;-54
2023/04/23 04:22:04;;;;;;;9.18;2.50;;;12.70;99.90;;;;;;4195642;28;20057;-55
2023/04/23 04:24:10;;;;;;;7.05;2.00;;;12.70;99.90;;;;;;4213261;28;20044;-55
2023/04/23 04:26:14;;;;;;;9.85;2.78;;;12.70;99.90;;;;;;4194960;28;20049;-54
2023/04/23 04:28:16;;;;;;;9.15;2.60;;;12.70;99.90;;;;;;4213386;28;20047;-52
2023/04/23 04:30:18;;;;;;;8.60;2.47;;;12.60;99.90;;;;;;4213578;28;20048;-55
2023/04/23 04:32:22;;;;;;;11.52;2.28;;;12.60;99.90;;;;;;4213635;28;20392;-54
2023/04/23 04:34:25;;;;;;;7.55;2.70;;;12.50;99.90;;;;;;4196097;28;20102;-55
2023/04/23 04:36:27;;;;;;;12.70;2.55;;;12.50;99.90;;;;;;4212561;28;20447;-53
2023/04/23 04:38:30;;;;;;;11.38;2.75;;;12.50;99.90;;;;;;4213485;28;20131;-54
2023/04/23 04:40:34;;;;;;;11.70;2.38;;;12.40;99.90;;;;;;4216915;28;20420;-58
2023/04/23 04:42:36;;;;;;;13.63;2.83;;;12.40;99.90;;;;;;4217006;28;20485;-55
2023/04/23 04:44:38;;;;;;;12.30;2.92;;;12.40;99.90;;;;;;4199201;28;20127;-57
2023/04/23 04:46:41;;;;;;;11.32;2.70;;;12.40;99.90;;;;;;4215480;28;20118;-55
2023/04/23 04:48:44;;;;;;;12.05;2.67;;;12.40;99.90;;;;;;4216990;28;20080;-54
2023/04/23 04:50:47;;;;;;;8.35;2.33;;;12.40;99.90;;;;;;4199404;28;20405;-56
2023/04/23 04:52:49;;;;;;;8.32;2.35;;;12.40;99.90;;;;;;4218586;28;20044;-56
2023/04/23 04:54:51;;;;;;;9.32;2.65;;;12.30;99.90;;;;;;4218652;28;20056;-55
2023/04/23 04:56:55;;;;;;;13.73;2.90;;;12.30;99.90;;;;;;4217607;28;20400;-55
2023/04/23 04:58:57;;;;;;;9.02;2.40;;;12.40;99.90;;;;;;4200113;28;20438;-59
2023/04/23 05:01:00;;;;;;;9.73;2.95;;;12.40;99.90;;;;;;4216477;28;20101;-54
2023/04/23 05:03:03;;;;;;;17.17;3.60;;;12.40;99.90;;;;;;4216712;28;20473;-55
2023/04/23 05:05:06;;;;;;;10.32;2.53;;;12.40;99.90;;;;;;4216435;28;20052;-55
2023/04/23 05:07:08;;;;;;;9.88;2.72;;;12.40;99.90;;;;;;4216219;28;20048;-55
2023/04/23 05:09:10;;;;;;;10.10;2.78;;;12.40;99.90;;;;;;4216537;28;20036;-56
2023/04/23 05:11:13;;;;;;;11.85;3.03;;;12.40;99.90;;;;;;4216570;28;20131;-55
2023/04/23 05:13:17;;;;;;;10.00;3.38;;;12.40;99.90;;;;;;4216502;28;20044;-54
2023/04/23 05:15:19;;;;;;;12.13;3.77;;;12.40;99.90;;;;;;4198318;28;20489;-54
2023/04/23 05:17:21;;;;;;;13.57;3.20;;;12.50;99.90;;;;;;4215057;28;20052;-54
2023/04/23 05:19:24;;;;;;;12.57;3.75;;;12.50;99.90;;;;;;4216153;28;20119;-55
2023/04/23 05:21:26;;;;;;;11.88;3.67;;;12.50;99.90;;;;;;4216194;28;20350;-59
2023/04/23 05:23:28;;;;;;;8.88;2.70;;;12.50;99.90;;;;;;4216182;28;20123;-55
2023/04/23 05:25:30;;;;;;;9.52;3.13;;;12.60;99.90;;;;;;4216238;28;20044;-55
2023/04/23 05:27:32;;;;;;;11.23;3.13;;;12.70;99.90;;;;;;4214863;28;20559;-54
2023/04/23 05:29:36;;;;;;;10.20;3.80;;;12.70;99.90;;;;;;4215890;28;20101;-55
2023/04/23 05:31:38;;;;;;;9.55;3.25;;;12.60;99.90;;;;;;4216032;28;20119;-54
2023/04/23 05:33:43;;;;;;;9.48;2.55;;;12.60;99.90;;;;;;4215870;28;20047;-55
2023/04/23 05:35:51;;;;;;;12.70;2.85;;;12.60;99.90;;;;;;4216242;28;20127;-54
2023/04/23 05:37:54;;;;;;;10.93;2.83;;;12.60;99.90;;;;;;4214958;28;20127;-54
2023/04/23 05:39:57;;;;;;;10.35;2.50;;;12.70;99.90;;;;;;4215813;28;20052;-54
2023/04/23 05:41:59;;;;;;;10.00;2.38;;;12.70;99.90;;;;;;4216029;28;20058;-55
2023/04/23 05:44:01;;;;;;;11.45;3.00;;;12.70;99.90;;;;;;4216062;28;20482;-55
2023/04/23 05:46:06;;;;;;;11.02;2.53;;;12.60;99.90;;;;;;4215556;28;20429;-55
2023/04/23 05:48:08;;;;;;;10.40;3.08;;;12.70;99.90;;;;;;4214735;28;20420;-54
2023/04/23 05:50:10;;;;;;;12.77;2.50;;;12.60;99.90;;;;;;4197406;28;20041;-58
2023/04/23 05:52:13;;;;;;;10.68;2.67;;;12.60;99.90;;;;;;4215601;28;20048;-55
2023/04/23 05:54:15;;;;;;;14.07;2.72;;;12.70;99.90;;;;;;4215852;28;20432;-55
2023/04/23 05:56:17;;;;;;;9.25;2.92;;;12.70;99.90;;;;;;4215600;28;20055;-55
2023/04/23 05:58:19;;;;;;;9.38;2.50;;;12.70;99.90;;;;;;4215350;28;20052;-56
2023/04/23 06:00:21;;;;;;;12.10;3.00;;;12.70;99.90;;;;;;4197594;28;20510;-55
2023/04/23 06:02:25;;;;;;;9.73;2.67;;;12.70;99.90;;;;;;4216629;28;20048;-56
2023/04/23 06:04:27;;;;;;;9.23;2.38;;;12.70;99.90;;;;;;4216743;28;20048;-57
2023/04/23 06:06:30;;;;;;;6.30;2.38;;;12.70;99.90;;;;;;4216357;28;20047;-63
2023/04/23 06:08:32;;;;;;;9.60;2.70;;;12.70;99.90;;;;;;4216381;28;20044;-55
2023/04/23 06:10:35;;;;;;;8.18;2.65;;;12.50;99.90;;;;;;4216207;28;20044;-55
2023/04/23 06:12:40;;;;;;;10.85;3.00;;;12.50;99.90;;;;;;4215681;28;20511;-55
2023/04/23 06:14:43;;;;;;;11.68;2.95;;;12.50;99.90;;;;;;4215260;28;20131;-54
2023/04/23 06:16:45;;;;;;;5.85;2.00;;;12.60;99.90;;;;;;4214597;28;20062;-54
2023/04/23 06:18:49;;;;;;;9.88;2.85;;;12.60;99.90;;;;;;4197539;28;20054;-54
2023/04/23 06:20:51;;;;;;;9.65;3.00;;;12.60;99.90;;;;;;4215562;28;20044;-55
2023/04/23 06:22:53;;;;;;;12.43;2.97;;;12.60;99.90;;;;;;4215200;28;20070;-56
2023/04/23 06:24:55;;;;;;;10.45;2.67;;;12.60;99.90;;;;;;4215530;28;20524;-54
2023/04/23 06:26:57;;;;;;;10.50;2.47;;;12.60;99.90;;;;;;4214405;28;20048;-55
2023/04/23 06:28:59;;;;;;;7.95;2.47;;;12.40;99.90;;;;;;4214535;28;20052;-56
2023/04/23 06:31:01;;;;;;;6.70;2.35;;;12.40;99.90;;;;;;4215198;28;20055;-55
2023/04/23 06:33:04;;;;;;;12.52;2.85;;;12.50;99.90;;;;;;4215263;28;20335;-55
2023/04/23 06:35:08;;;;;;;11.57;3.22;;;12.60;99.90;;;;;;4214980;28;20094;-54
2023/04/23 06:37:10;;;;;;;8.45;1.63;;;12.60;99.90;;;;;;4214375;28;20432;-55
2023/04/23 06:39:12;;;;;;;8.63;2.55;;;12.70;99.90;;;;;;4214857;28;20094;-54
2023/04/23 06:41:16;;;;;;;10.30;2.55;;;12.70;99.90;;;;;;4215172;28;20048;-55
2023/04/23 06:43:19;;;;;;;7.90;2.38;;;12.70;99.90;;;;;;4214740;28;20044;-56
2023/04/23 06:45:21;;;;;;;11.25;2.42;;;12.70;99.90;;;;;;4215236;28;20124;-58
2023/04/23 06:47:23;;;;;;;10.18;2.50;;;12.60;99.90;;;;;;4214316;28;20460;-58
2023/04/23 06:49:25;;;;;;;8.13;2.70;;;12.70;99.90;;;;;;4215045;28;20105;-55
2023/04/23 06:51:30;;;;;;;9.65;2.67;;;12.70;99.90;;;;;;4214997;28;20048;-55
2023/04/23 06:53:33;;;;;;;6.57;2.47;;;12.70;99.90;;;;;;4214759;28;20048;-55
2023/04/23 06:55:35;;;;;;;11.45;2.78;;;12.70;99.90;;;;;;4214859;28;20097;-58
2023/04/23 06:57:37;;;;;;;11.23;2.88;;;12.70;99.90;;;;;;4195340;28;20119;-55
2023/04/23 06:59:42;;;;;;;12.40;3.33;;;12.70;99.90;;;;;;4214646;28;20054;-59
2023/04/23 07:01:44;;;;;;;8.98;2.47;;;12.60;99.90;;;;;;4214167;28;20139;-56
2023/04/23 07:03:48;;;;;;;13.57;3.45;;;12.60;99.90;;;;;;4214711;28;20134;-54
2023/04/23 07:05:50;;;;;;;10.30;2.60;;;12.70;99.90;;;;;;4214645;28;20051;-55
2023/04/23 07:07:53;;;;;;;12.35;3.00;;;12.50;99.90;;;;;;4213798;28;20058;-55
2023/04/23 07:09:55;;;;;;;7.85;2.45;;;12.60;99.90;;;;;;4214634;28;20408;-55
2023/04/23 07:11:58;;;;;;;6.60;2.78;;;12.50;99.90;;;;;;4213854;28;20044;-56
2023/04/23 07:14:01;;;;;;;7.85;2.58;;;12.60;99.90;;;;;;4214612;28;20462;-55
2023/04/23 07:16:03;;;;;;;9.80;2.70;;;12.60;99.90;;;;;;4214282;28;20089;-55
2023/04/23 07:18:06;;;;;;;10.50;3.20;;;12.60;99.90;;;;;;4213574;28;20138;-54
2023/04/23 07:20:08;;;;;;;11.10;2.88;;;12.60;99.90;;;;;;4214224;28;20048;-54
2023/04/23 07:22:10;;;;;;;9.73;3.15;;;12.60;99.90;;;;;;4214264;28;20097;-54
2023/04/23 07:24:14;;;;;;;7.32;2.50;;;12.50;99.90;;;;;;4214367;28;20048;-55
2023/04/23 07:26:20;;;;;;;7.72;3.03;;;12.60;99.90;;;;;;4213844;28;20068;-54
2023/04/23 07:28:21;;;;;;;6.97;2.53;;;12.60;99.90;;;;;;4213372;28;20048;-55
2023/04/23 07:30:25;;;;;;;7.97;3.45;;;12.50;99.90;;;;;;4214493;28;20047;-57
2023/04/23 07:32:30;;;;;;;7.75;2.83;;;12.40;99.90;;;;;;4214293;28;20044;-55
2023/04/23 07:34:35;;;;;;;5.50;2.42;;;12.50;99.90;;;;;;4213846;28;20074;-55
2023/04/23 07:36:39;;;;;;;8.32;3.22;;;12.60;99.90;;;;;;4213802;28;20075;-54
2023/04/23 07:38:42;;;;;;;11.20;3.50;;;12.70;99.90;;;;;;4213762;28;20052;-55
2023/04/23 07:40:46;;;;;;;8.95;3.30;;;12.60;99.90;;;;;;4213406;28;20487;-55
2023/04/23 07:42:49;;;;;;;8.35;3.17;;;12.60;99.90;;;;;;4196234;28;20045;-56
2023/04/23 07:44:51;;;;;;;7.82;3.03;;;12.60;99.90;;;;;;4214120;28;20048;-54
2023/04/23 07:46:53;;;;;;;6.90;3.38;;;12.70;99.90;;;;;;4213275;28;20060;-63
2023/04/23 07:48:57;;;;;;;6.47;3.60;;;12.70;99.90;;;;;;4213903;28;20048;-55
2023/04/23 07:51:00;;;;;;;9.82;3.33;;;12.80;99.90;;;;;;4214063;28;20052;-55
2023/04/23 07:53:02;;;;;;;6.72;3.42;;;12.80;99.90;;;;;;4214008;28;20375;-54
2023/04/23 07:55:05;;;;;;;7.07;3.35;;;12.90;99.90;;;;;;4213370;28;20150;-55
2023/04/23 07:57:10;;;;;;;7.60;3.50;;;12.90;99.90;;;;;;4212799;28;20488;-56
2023/04/23 07:59:12;;;;;;;10.30;3.88;;;12.80;99.90;;;;;;4213899;28;20254;-55
2023/04/23 08:01:14;;;;;;;7.93;3.35;;;12.70;99.90;;;;;;4213988;28;20052;-55
2023/04/23 08:03:16;;;;;;;8.98;4.00;;;12.70;99.90;;;;;;4195931;28;20076;-56
2023/04/23 08:05:19;;;;;;;7.22;3.72;;;12.80;99.90;;;;;;4213780;28;20044;-55
2023/04/23 08:07:21;;;;;;;5.50;3.30;;;12.80;99.90;;;;;;4212779;28;20058;-55
2023/04/23 08:09:23;;;;;;;8.95;3.78;;;12.90;99.90;;;;;;4213567;28;20481;-55
2023/04/23 08:11:28;;;;;;;6.90;3.40;;;12.90;99.90;;;;;;4213834;28;20067;-55
2023/04/23 08:13:32;;;;;;;6.57;3.70;;;13.00;99.90;;;;;;4212915;28;20048;-55
2023/04/23 08:15:34;;;;;;;4.00;3.08;;;13.00;99.90;;;;;;4213572;28;20054;-55
2023/04/23 08:17:36;;;;;;;6.80;3.42;;;13.00;99.90;;;;;;4212873;28;20048;-55
2023/04/23 08:19:38;;;;;;;7.10;3.53;;;13.10;99.90;;;;;;4213334;28;20106;-56
2023/04/23 08:21:41;;;;;;;6.82;3.38;;;13.10;99.90;;;;;;4214079;28;20042;-55
2023/04/23 08:23:43;;;;;;;8.52;3.17;;;13.10;99.90;;;;;;4213732;28;20056;-55
2023/04/23 08:25:45;;;;;;;5.57;3.40;;;13.20;99.90;;;;;;4213566;28;20055;-56
2023/04/23 08:27:47;;;;;;;6.60;3.72;;;13.30;99.90;;;;;;4212744;28;20114;-54
2023/04/23 08:29:50;;;;;;;5.03;2.90;;;13.30;99.90;;;;;;4213494;28;20460;-55
2023/04/23 08:31:54;;;;;;;8.10;3.67;;;13.40;99.90;;;;;;4212797;28;20044;-56
2023/04/23 08:33:56;;;;;;;8.00;3.60;;;13.40;99.90;;;;;;4213528;28;20051;-55
2023/04/23 08:35:58;;;;;;;6.32;3.42;;;13.50;99.90;;;;;;4195772;28;20048;-55
2023/04/23 08:38:00;;;;;;;5.65;3.97;;;13.60;99.90;;;;;;4212650;28;20130;-55
2023/04/23 08:40:03;;;;;;;7.05;3.47;;;13.60;99.90;;;;;;4212934;28;20058;-55
2023/04/23 08:42:10;;;;;;;7.07;3.10;;;13.50;99.90;;;;;;4213595;28;20054;-55
2023/04/23 08:44:17;;;;;;;5.63;3.22;;;13.70;99.90;;;;;;4213555;28;20474;-55
2023/04/23 08:46:22;;;;;;;5.45;2.78;;;13.80;99.90;;;;;;4213792;28;20048;-61
2023/04/23 08:48:25;;;;;;;5.38;3.45;;;13.80;99.90;;;;;;4212691;28;20044;-55
2023/04/23 08:50:28;;;;;;;6.53;3.20;;;13.90;99.90;;;;;;4214067;28;20060;-65
2023/04/23 08:52:36;;;;;;;6.03;3.85;;;13.90;99.90;;;;;;4214055;28;20044;-55
2023/04/23 08:54:44;;;;;;;7.32;3.80;;;13.80;99.90;;;;;;4214002;28;20131;-59
2023/04/23 08:56:48;;;;;;;6.68;3.67;;;13.80;99.90;;;;;;4196365;28;20295;-59
2023/04/23 08:58:50;;;;;;;7.55;3.78;;;13.90;99.90;;;;;;4213002;28;20215;-55
2023/04/23 09:00:53;;;;;;;6.45;3.55;;;14.10;99.90;;;;;;4214122;28;20497;-55
2023/04/23 09:02:57;;;;;;;5.15;3.78;;;13.90;99.90;;;;;;4213425;28;20048;-55
2023/04/23 09:05:02;;;;;;;6.15;3.20;;;14.00;99.90;;;;;;4213779;28;20468;-54
2023/04/23 09:07:10;;;;;;;7.65;3.90;;;14.00;99.90;;;;;;4212948;28;20059;-55
2023/04/23 09:09:16;;;;;;;6.82;3.75;;;14.10;99.90;;;;;;4213766;28;20044;-57
2023/04/23 09:11:19;;;;;;;7.40;3.25;;;14.20;99.90;;;;;;4214560;28;20093;-59
2023/04/23 09:13:22;;;;;;;4.40;3.17;;;14.40;99.90;;;;;;4214096;28;20098;-58
2023/04/23 09:15:24;;;;;;;5.28;3.72;;;14.40;99.90;;;;;;4213093;28;20041;-55
2023/04/23 09:17:29;;;;;;;4.32;2.70;;;14.30;99.90;;;;;;4212423;28;20055;-55
2023/04/23 09:19:33;;;;;;;6.43;3.75;;;14.50;99.90;;;;;;4213023;28;20044;-55
2023/04/23 09:21:38;;;;;;;7.17;3.07;;;14.50;99.90;;;;;;4213204;28;20044;-59
2023/04/23 09:23:40;;;;;;;7.03;3.30;;;14.70;99.90;;;;;;4212836;28;20044;-61
2023/04/23 09:25:42;;;;;;;6.38;3.28;;;14.80;99.90;;;;;;4215177;28;20040;-54
2023/04/23 09:27:45;;;;;;;5.40;3.60;;;14.90;99.90;;;;;;4215494;28;20048;-55
2023/04/23 09:29:51;;;;;;;4.38;2.90;;;15.00;99.90;;;;;;4215123;28;20058;-55
2023/04/23 09:31:55;;;;;;;7.90;3.40;;;15.00;99.90;;;;;;4216108;28;20068;-54
2023/04/23 09:33:57;;;;;;;5.43;3.00;;;15.10;99.90;;;;;;4216136;28;20185;-55
2023/04/23 09:36:10;;;;;;;9.40;3.42;;;15.20;99.90;;;;;;4216356;28;20056;-55
2023/04/23 09:38:12;;;;;;;5.65;3.28;;;15.20;99.90;;;;;;4214316;28;20528;-55
2023/04/23 09:40:15;;;;;;;5.22;3.25;;;15.30;99.90;;;;;;4216225;28;20056;-55
2023/04/23 09:42:17;;;;;;;4.40;3.00;;;15.20;99.90;;;;;;4216742;28;20044;-56
2023/04/23 09:44:25;;;;;;;6.22;3.28;;;15.10;99.90;;;;;;4217397;28;20036;-58
2023/04/23 09:46:35;;;;;;;9.05;3.55;;;15.20;99.90;;;;;;4216910;28;20051;-56
2023/04/23 09:48:40;;;;;;;6.43;3.35;;;15.50;99.90;;;;;;4216172;28;20048;-60
2023/04/23 09:50:42;;;;;;;4.82;2.92;;;15.50;99.90;;;;;;4199216;28;20050;-54
2023/04/23 09:52:53;;;;;;;4.30;3.08;;;15.40;99.90;;;;;;4216452;28;20047;-55
2023/04/23 09:54:58;;;;;;;4.20;3.00;;;15.70;99.90;;;;;;4216124;28;20461;-56
2023/04/23 09:57:01;;;;;;;9.05;3.08;;;15.70;99.90;;;;;;4198171;28;20123;-56
2023/04/23 09:59:19;;;;;;;4.63;2.72;;;15.70;99.90;;;;;;4215218;28;20048;-54
2023/04/23 10:01:30;;;;;;;5.80;3.20;;;15.90;99.90;;;;;;4215987;28;20056;-55
2023/04/23 10:03:32;;;;;;;4.80;3.05;;;15.80;99.90;;;;;;4215751;28;20048;-55
2023/04/23 10:05:38;;;;;;;7.32;3.53;;;15.80;99.90;;;;;;4215263;28;20044;-55
2023/04/23 10:07:44;;;;;;;4.90;3.20;;;15.90;99.90;;;;;;4214455;28;20076;-55
2023/04/23 10:09:47;;;;;;;6.07;3.17;;;15.80;99.90;;;;;;4215444;28;20056;-55
2023/04/23 10:11:51;;;;;;;7.22;3.53;;;15.70;99.90;;;;;;4215491;28;20044;-55
2023/04/23 10:13:54;;;;;;;3.80;2.58;;;15.60;99.90;;;;;;4215567;28;20409;-55
2023/04/23 10:15:58;;;;;;;6.32;3.63;;;15.40;99.90;;;;;;4215349;28;20477;-54
2023/04/23 10:18:19;;;;;;;5.13;2.67;;;15.20;99.90;;;;;;4214328;28;20051;-55
2023/04/23 10:20:22;;;;;;;6.75;2.63;;;15.00;99.90;;;;;;4215079;28;20044;-55
2023/04/23 10:22:27;;;;;;;2.97;2.33;;;15.00;99.90;;;;;;4215471;28;20048;-57
2023/04/23 10:24:32;;;;;;;5.63;2.63;;;15.00;99.90;;;;;;4215306;28;20039;-55
2023/04/23 10:26:38;;;;;;;7.28;3.00;;;15.00;99.90;;;;;;4215121;28;20127;-54
2023/04/23 10:28:45;;;;;;;6.20;2.40;;;15.00;99.90;;;;;;4214190;28;20097;-56
2023/04/23 10:30:48;;;;;;;5.47;2.72;;;15.10;99.90;;;;;;4215200;28;20121;-55
2023/04/23 10:32:52;;;;;;;4.03;2.47;;;15.20;99.90;;;;;;4215122;28;20052;-55
2023/04/23 10:34:54;;;;;;;5.53;2.33;;;15.20;99.90;;;;;;4214486;28;20040;-56
2023/04/23 10:36:59;;;;;;;4.82;2.13;;;15.50;99.90;;;;;;4213874;28;20044;-55
2023/04/23 10:39:06;;;;;;;5.00;2.60;;;15.50;99.90;;;;;;4213792;28;20044;-55